createdAt,value
2023-04-04T00:00:38.894Z,0.59
2023-04-04T00:03:06.811Z,0.48
2023-04-04T00:05:35.834Z,0.38
2023-04-04T00:08:04.210Z,0.49
2023-04-04T00:10:31.578Z,0.42
2023-04-04T00:12:59.137Z,0.34
2023-04-04T00:15:27.443Z,0.44
2023-04-04T00:17:54.711Z,0.52
2023-04-04T00:20:22.064Z,0.46
2023-04-04T00:22:49.274Z,0.43
2023-04-04T00:25:16.491Z,0.50
2023-04-04T00:27:43.979Z,0.36
2023-04-04T00:30:12.506Z,0.17
2023-04-04T00:32:39.946Z,0.29
2023-04-04T00:35:07.816Z,0.22
2023-04-04T00:37:35.801Z,0.29
2023-04-04T00:40:04.258Z,0.18
2023-04-04T00:42:34.049Z,0.07
2023-04-04T00:45:01.653Z,0.06
2023-04-04T00:47:31.742Z,0.11
2023-04-04T00:49:59.071Z,0.19
2023-04-04T00:52:27.273Z,0.10
2023-04-04T00:54:56.827Z,0.17
2023-04-04T00:57:24.626Z,0.14
2023-04-04T00:59:52.192Z,-0.02
2023-04-04T01:02:19.508Z,0.10
2023-04-04T01:04:47.334Z,0.13
2023-04-04T01:07:14.939Z,-0.05
2023-04-04T01:09:42.610Z,-0.01
2023-04-04T01:12:10.084Z,-0.14
2023-04-04T01:14:37.632Z,-0.31
2023-04-04T01:17:06.183Z,-0.12
2023-04-04T01:19:43.564Z,-0.30
2023-04-04T01:22:16.335Z,-0.17
2023-04-04T01:24:46.748Z,-0.29
2023-04-04T01:27:14.714Z,-0.14
2023-04-04T01:29:48.372Z,-0.20
2023-04-04T01:32:20.514Z,-0.16
2023-04-04T01:35:24.157Z,-0.09
2023-04-04T01:38:31.418Z,-0.19
2023-04-04T01:41:08.959Z,-0.33
2023-04-04T01:43:39.436Z,-0.15
2023-04-04T01:46:07.106Z,-0.23
2023-04-04T01:48:34.462Z,-0.28
2023-04-04T01:51:06.339Z,-0.33
2023-04-04T01:53:34.188Z,-0.23
2023-04-04T01:56:01.472Z,-0.32
2023-04-04T01:58:29.962Z,-0.23
2023-04-04T02:00:58.073Z,-0.31
2023-04-04T02:03:25.778Z,-0.29
2023-04-04T02:05:54.168Z,-0.48
2023-04-04T02:08:21.955Z,-0.74
2023-04-04T02:10:54.107Z,-0.59
2023-04-04T02:13:21.730Z,-0.69
2023-04-04T02:15:52.478Z,-0.60
2023-04-04T02:18:20.295Z,-0.58
2023-04-04T02:20:47.460Z,-0.78
2023-04-04T02:23:14.734Z,-0.96
2023-04-04T02:25:42.036Z,-0.81
2023-04-04T02:28:09.628Z,-0.80
2023-04-04T02:30:36.807Z,-0.81
2023-04-04T02:33:04.769Z,-0.76
2023-04-04T02:35:32.320Z,-0.68
2023-04-04T02:37:59.915Z,-0.97
2023-04-04T02:40:39.739Z,-0.86
2023-04-04T02:43:07.231Z,-0.87
2023-04-04T02:45:35.884Z,-0.99
2023-04-04T02:48:13.461Z,-0.94
2023-04-04T02:50:48.169Z,-0.81
2023-04-04T02:53:16.859Z,-0.75
2023-04-04T02:55:45.406Z,-0.60
2023-04-04T02:58:12.919Z,-0.50
2023-04-04T03:00:40.338Z,-0.42
2023-04-04T03:03:08.025Z,-0.32
2023-04-04T03:05:40.881Z,-0.23
2023-04-04T03:08:08.332Z,-0.31
2023-04-04T03:10:35.798Z,-0.38
2023-04-04T03:13:04.190Z,-0.41
2023-04-04T03:15:35.126Z,-0.40
2023-04-04T03:18:03.452Z,-0.42
2023-04-04T03:20:33.156Z,-0.35
2023-04-04T03:23:00.484Z,-0.48
2023-04-04T03:25:27.946Z,-0.42
2023-04-04T03:27:55.580Z,-0.44
2023-04-04T03:30:25.693Z,-0.39
2023-04-04T03:32:53.637Z,-0.41
2023-04-04T03:35:21.217Z,-0.25
2023-04-04T03:37:48.402Z,-0.28
2023-04-04T03:40:15.811Z,-0.13
2023-04-04T03:42:43.128Z,-0.22
2023-04-04T03:45:12.599Z,-0.19
2023-04-04T03:47:42.017Z,-0.09
2023-04-04T03:50:10.166Z,-0.18
2023-04-04T03:52:40.790Z,-0.13
2023-04-04T03:55:08.878Z,-0.07
2023-04-04T03:57:36.405Z,-0.10
2023-04-04T04:00:06.071Z,-0.01
2023-04-04T04:02:40.220Z,-0.06
2023-04-04T04:05:09.522Z,-0.10
2023-04-04T04:07:36.780Z,-0.15
2023-04-04T04:10:05.515Z,0.01
2023-04-04T04:12:33.532Z,0.04
2023-04-04T04:15:00.943Z,0.17
2023-04-04T04:17:31.246Z,0.23
2023-04-04T04:19:58.574Z,0.11
2023-04-04T04:22:27.509Z,0.16
2023-04-04T04:24:54.791Z,0.00
2023-04-04T04:27:22.184Z,0.04
2023-04-04T04:29:49.500Z,0.01
2023-04-04T04:32:18.725Z,0.07
2023-04-04T04:34:49.859Z,0.06
2023-04-04T04:37:21.716Z,0.05
2023-04-04T04:39:53.231Z,-0.18
2023-04-04T04:42:47.075Z,-0.24
2023-04-04T04:45:17.945Z,-0.17
2023-04-04T04:47:51.252Z,-0.07
2023-04-04T04:50:19.281Z,-0.10
2023-04-04T04:52:54.318Z,-0.07
2023-04-04T05:00:38.322Z,0.23
2023-04-04T05:03:07.652Z,0.22
2023-04-04T05:05:39.537Z,0.09
2023-04-04T05:08:10.747Z,0.11
2023-04-04T05:10:44.433Z,0.08
2023-04-04T05:13:11.894Z,0.22
2023-04-04T05:15:43.743Z,0.26
2023-04-04T05:18:12.000Z,0.19
2023-04-04T05:20:40.302Z,0.26
2023-04-04T05:23:11.044Z,0.43
2023-04-04T05:25:41.572Z,0.57
2023-04-04T05:28:09.184Z,0.37
2023-04-04T05:30:40.252Z,0.50
2023-04-04T05:33:15.147Z,0.12
2023-04-04T05:35:48.362Z,-0.01
2023-04-04T05:38:16.949Z,0.06
2023-04-04T05:40:46.056Z,0.22
2023-04-04T05:43:15.104Z,0.34
2023-04-04T05:45:52.422Z,0.22
2023-04-04T05:48:20.517Z,0.36
2023-04-04T05:50:51.874Z,0.35
2023-04-04T05:53:25.223Z,0.17
2023-04-04T05:55:53.808Z,0.24
2023-04-04T05:58:24.330Z,0.23
2023-04-04T06:00:55.995Z,0.41
2023-04-04T06:03:24.213Z,0.21
2023-04-04T06:05:53.117Z,0.37
2023-04-04T06:08:20.845Z,0.28
2023-04-04T06:10:48.116Z,0.15
2023-04-04T06:13:15.763Z,0.23
2023-04-04T06:15:48.863Z,0.13
2023-04-04T06:18:17.533Z,0.42
2023-04-04T06:20:44.737Z,0.63
2023-04-04T06:23:12.120Z,0.58
2023-04-04T06:25:44.298Z,0.45
2023-04-04T06:28:15.944Z,0.38
2023-04-04T06:30:45.185Z,0.55
2023-04-04T06:33:14.183Z,0.68
2023-04-04T06:35:45.888Z,0.39
2023-04-04T06:38:14.396Z,0.47
2023-04-04T06:40:42.136Z,0.67
2023-04-04T06:43:10.236Z,0.69
2023-04-04T06:45:40.618Z,0.89
2023-04-04T06:48:08.191Z,1.02
2023-04-04T06:50:36.777Z,1.22
2023-04-04T06:53:07.331Z,0.88
2023-04-04T06:55:35.597Z,0.61
2023-04-04T06:58:03.032Z,0.78
2023-04-04T07:00:30.532Z,0.96
2023-04-04T07:02:59.556Z,0.55
2023-04-04T07:05:27.841Z,0.72
2023-04-04T07:07:57.039Z,0.99
2023-04-04T07:10:25.071Z,1.55
2023-04-04T07:12:52.338Z,1.08
2023-04-04T07:15:19.756Z,1.77
2023-04-04T07:17:47.352Z,1.99
2023-04-04T07:20:14.729Z,1.86
2023-04-04T07:22:42.676Z,1.75
2023-04-04T07:25:10.498Z,2.07
2023-04-04T07:27:37.841Z,2.45
2023-04-04T07:30:05.896Z,2.57
2023-04-04T07:32:33.178Z,2.92
2023-04-04T07:35:00.426Z,2.78
2023-04-04T07:37:27.699Z,3.40
2023-04-04T07:39:54.959Z,3.82
2023-04-04T07:42:25.420Z,3.46
2023-04-04T07:44:53.096Z,2.86
2023-04-04T07:47:20.723Z,3.33
2023-04-04T07:49:47.950Z,3.12
2023-04-04T07:52:15.210Z,3.64
2023-04-04T07:54:43.532Z,5.55
2023-04-04T07:57:11.172Z,6.93
2023-04-04T07:59:38.695Z,5.81
2023-04-04T08:02:06.684Z,4.80
2023-04-04T08:04:34.041Z,4.13
2023-04-04T08:07:01.492Z,4.15
2023-04-04T08:09:34.311Z,4.78
2023-04-04T08:12:02.296Z,4.33
2023-04-04T08:14:29.634Z,4.34
2023-04-04T08:16:57.056Z,4.18
2023-04-04T08:19:24.458Z,3.92
2023-04-04T08:21:52.454Z,3.65
2023-04-04T08:24:22.458Z,3.79
2023-04-04T08:26:58.319Z,3.71
2023-04-04T08:29:33.151Z,3.94
2023-04-04T08:32:00.866Z,3.76
2023-04-04T08:34:28.806Z,4.02
2023-04-04T08:36:57.159Z,3.93
2023-04-04T08:39:24.516Z,3.85
2023-04-04T08:42:05.717Z,4.35
2023-04-04T08:44:34.963Z,5.19
2023-04-04T08:47:05.569Z,7.41
2023-04-04T08:49:37.467Z,9.49
2023-04-04T08:52:07.605Z,12.09
2023-04-04T08:54:38.871Z,15.24
2023-04-04T08:57:07.009Z,12.11
2023-04-04T08:59:34.664Z,9.69
2023-04-04T09:02:08.633Z,7.00
2023-04-04T09:10:07.243Z,5.77
2023-04-04T09:12:37.922Z,5.95
2023-04-04T09:15:05.834Z,5.61
2023-04-04T09:17:33.156Z,5.14
2023-04-04T09:20:24.171Z,4.15
2023-04-04T09:22:51.622Z,3.90
2023-04-04T09:25:19.264Z,4.11
2023-04-04T09:27:49.232Z,4.26
2023-04-04T09:30:17.051Z,4.83
2023-04-04T09:32:44.836Z,6.14
2023-04-04T09:35:16.237Z,6.52
2023-04-04T09:37:44.365Z,6.67
2023-04-04T09:40:13.868Z,6.55
2023-04-04T09:42:41.268Z,5.98
2023-04-04T09:45:10.562Z,5.82
2023-04-04T09:47:42.921Z,5.62
2023-04-04T09:50:16.565Z,6.35
2023-04-04T09:52:44.487Z,7.13
2023-04-04T09:55:11.668Z,7.95
2023-04-04T09:57:41.196Z,8.74
2023-04-04T10:00:09.274Z,10.46
2023-04-04T10:02:41.313Z,13.40
2023-04-04T10:05:12.226Z,16.84
2023-04-04T10:07:42.414Z,16.74
2023-04-04T10:10:10.594Z,17.55
2023-04-04T10:12:38.926Z,16.64
2023-04-04T10:15:07.013Z,16.89
2023-04-04T10:17:42.212Z,16.67
2023-04-04T10:20:10.966Z,16.82
2023-04-04T10:22:39.214Z,16.54
2023-04-04T10:25:07.898Z,16.98
2023-04-04T10:27:35.710Z,17.77
2023-04-04T10:30:03.285Z,15.29
2023-04-04T10:33:12.968Z,12.58
2023-04-04T10:35:45.478Z,10.48
2023-04-04T10:38:13.684Z,10.30
2023-04-04T10:40:43.702Z,14.07
2023-04-04T10:43:12.200Z,16.52
2023-04-04T10:45:42.814Z,13.14
2023-04-04T10:48:10.809Z,11.74
2023-04-04T10:50:39.482Z,9.96
2023-04-04T10:53:08.296Z,9.12
2023-04-04T10:55:37.469Z,10.15
2023-04-04T10:58:05.713Z,10.37
2023-04-04T11:00:33.033Z,13.11
2023-04-04T11:03:02.636Z,12.74
2023-04-04T11:05:47.403Z,11.74
2023-04-04T11:08:22.180Z,10.24
2023-04-04T11:10:51.750Z,9.48
2023-04-04T11:13:39.926Z,12.40
2023-04-04T11:16:15.466Z,12.18
2023-04-04T11:18:43.283Z,11.98
2023-04-04T11:21:26.490Z,11.03
2023-04-04T11:24:02.254Z,9.56
2023-04-04T11:26:29.369Z,8.95
2023-04-04T11:29:09.785Z,9.11
2023-04-04T11:31:45.549Z,8.92
2023-04-04T11:34:14.781Z,9.23
2023-04-04T11:36:43.208Z,8.66
2023-04-04T11:39:30.651Z,7.26
2023-04-04T11:42:13.692Z,6.58
2023-04-04T11:44:51.034Z,6.93
2023-04-04T11:47:25.119Z,7.45
2023-04-04T11:49:54.919Z,7.25
2023-04-04T11:52:23.915Z,7.92
2023-04-04T11:54:51.701Z,8.40
2023-04-04T11:57:21.289Z,8.54
2023-04-04T11:59:51.063Z,8.97
2023-04-04T12:02:34.483Z,7.83
2023-04-04T12:05:02.922Z,7.39
2023-04-04T12:07:30.497Z,7.69
2023-04-04T12:09:58.765Z,7.80
2023-04-04T12:12:28.401Z,8.34
2023-04-04T12:15:03.467Z,7.86
2023-04-04T12:17:44.179Z,6.92
2023-04-04T12:20:11.910Z,6.78
2023-04-04T12:22:39.765Z,6.30
2023-04-04T12:25:07.886Z,6.05
2023-04-04T12:27:35.970Z,6.36
2023-04-04T12:30:04.999Z,7.05
2023-04-04T12:32:32.774Z,8.09
2023-04-04T12:35:03.891Z,8.47
2023-04-04T12:37:31.250Z,8.27
2023-04-04T12:39:58.608Z,8.13
2023-04-04T12:42:26.468Z,7.45
2023-04-04T12:44:55.375Z,7.09
2023-04-04T12:47:25.019Z,7.03
2023-04-04T12:49:57.397Z,6.61
2023-04-04T12:52:32.963Z,7.10
2023-04-04T12:55:10.143Z,7.01
2023-04-04T12:57:39.882Z,6.98
2023-04-04T13:00:09.199Z,6.82
2023-04-04T13:02:39.087Z,6.63
2023-04-04T13:05:07.791Z,6.58
2023-04-04T13:07:43.490Z,6.70
2023-04-04T13:10:15.064Z,6.93
2023-04-04T13:13:00.297Z,7.22
2023-04-04T13:15:52.934Z,7.57
2023-04-04T13:18:24.916Z,7.61
2023-04-04T13:20:54.399Z,7.05
2023-04-04T13:23:23.217Z,6.69
2023-04-04T13:25:51.429Z,6.24
2023-04-04T13:28:18.736Z,6.28
2023-04-04T13:30:49.640Z,5.89
2023-04-04T13:33:18.513Z,5.68
2023-04-04T13:35:46.412Z,5.73
2023-04-04T13:38:14.123Z,5.58
2023-04-04T13:40:41.521Z,5.62
2023-04-04T13:43:11.604Z,5.98
2023-04-04T13:45:39.393Z,5.81
2023-04-04T13:48:06.998Z,5.78
2023-04-04T13:50:39.683Z,6.23
2023-04-04T13:53:07.081Z,6.15
2023-04-04T13:55:34.331Z,5.57
2023-04-04T13:58:01.758Z,5.15
2023-04-04T14:00:29.014Z,5.11
2023-04-04T14:02:57.736Z,4.82
2023-04-04T14:05:25.685Z,5.00
2023-04-04T14:07:53.003Z,5.14
2023-04-04T14:10:20.265Z,4.78
2023-04-04T14:12:47.629Z,4.85
2023-04-04T14:15:14.882Z,4.76
2023-04-04T14:17:43.479Z,4.93
2023-04-04T14:20:11.823Z,5.21
2023-04-04T14:22:39.090Z,5.08
2023-04-04T14:25:06.472Z,5.00
2023-04-04T14:27:33.770Z,5.06
2023-04-04T14:30:26.811Z,4.83
2023-04-04T14:32:54.243Z,4.81
2023-04-04T14:35:21.530Z,5.04
2023-04-04T14:37:50.061Z,5.65
2023-04-04T14:40:17.613Z,5.68
2023-04-04T14:42:44.950Z,5.61
2023-04-04T14:45:12.945Z,5.08
2023-04-04T14:47:40.284Z,4.50
2023-04-04T14:50:08.336Z,4.44
2023-04-04T14:52:36.511Z,4.79
2023-04-04T14:55:04.541Z,4.94
2023-04-04T14:57:38.998Z,4.90
2023-04-04T15:00:11.578Z,4.54
2023-04-04T15:02:38.920Z,4.20
2023-04-04T15:05:06.839Z,4.09
2023-04-04T15:07:34.044Z,3.95
2023-04-04T15:10:01.949Z,4.15
2023-04-04T15:12:29.108Z,3.93
2023-04-04T15:14:56.304Z,3.59
2023-04-04T15:17:23.575Z,3.36
2023-04-04T15:19:51.005Z,3.35
2023-04-04T15:22:18.215Z,3.21
2023-04-04T15:24:45.543Z,3.24
2023-04-04T15:27:12.778Z,3.31
2023-04-04T15:29:40.276Z,3.47
2023-04-04T15:32:07.596Z,3.62
2023-04-04T15:34:34.809Z,3.27
2023-04-04T15:37:04.298Z,3.43
2023-04-04T15:39:39.744Z,3.39
2023-04-04T15:42:13.342Z,3.49
2023-04-04T15:44:40.618Z,3.11
2023-04-04T15:47:07.835Z,3.17
2023-04-04T15:49:35.103Z,3.00
2023-04-04T15:52:03.684Z,3.09
2023-04-04T15:54:31.792Z,3.05
2023-04-04T15:56:59.252Z,2.78
2023-04-04T15:59:27.286Z,2.75
2023-04-04T16:01:54.655Z,2.71
2023-04-04T16:04:21.976Z,2.41
2023-04-04T16:06:49.247Z,2.74
2023-04-04T16:09:16.483Z,2.81
2023-04-04T16:11:43.859Z,2.72
2023-04-04T16:14:12.259Z,2.61
2023-04-04T16:16:41.356Z,2.83
2023-04-04T16:19:08.718Z,2.50
2023-04-04T16:21:36.330Z,2.57
2023-04-04T16:24:05.272Z,2.78
2023-04-04T16:26:32.508Z,2.81
2023-04-04T16:28:59.745Z,2.79
2023-04-04T16:31:27.438Z,2.71
2023-04-04T16:33:54.844Z,2.62
2023-04-04T16:36:22.391Z,2.61
2023-04-04T16:38:49.711Z,2.66
2023-04-04T16:41:17.254Z,2.58
2023-04-04T16:43:48.620Z,2.47
2023-04-04T16:46:16.274Z,2.34
2023-04-04T16:48:43.596Z,2.32
2023-04-04T16:51:12.456Z,2.36
2023-04-04T16:53:40.177Z,2.14
2023-04-04T16:56:07.452Z,1.93
2023-04-04T16:58:34.781Z,1.87
2023-04-04T17:01:02.097Z,1.88
2023-04-04T17:03:29.507Z,2.05
2023-04-04T17:05:59.912Z,1.80
2023-04-04T17:08:28.248Z,1.72
2023-04-04T17:10:55.840Z,1.73
2023-04-04T17:13:23.080Z,1.61
2023-04-04T17:15:50.867Z,1.70
2023-04-04T17:18:18.114Z,1.62
2023-04-04T17:20:47.789Z,1.51
2023-04-04T17:23:15.130Z,1.27
2023-04-04T17:25:42.341Z,1.25
2023-04-04T17:28:09.644Z,1.40
2023-04-04T17:30:37.012Z,1.48
2023-04-04T17:33:04.919Z,1.55
2023-04-04T17:35:32.211Z,1.39
2023-04-04T17:37:59.470Z,1.49
2023-04-04T17:40:26.882Z,1.31
2023-04-04T17:42:54.145Z,1.31
2023-04-04T17:45:21.655Z,1.39
2023-04-04T17:47:49.073Z,1.33
2023-04-04T17:50:16.628Z,1.28
2023-04-04T17:52:44.027Z,1.27
2023-04-04T17:55:12.019Z,1.22
2023-04-04T17:57:39.947Z,1.12
2023-04-04T18:00:09.469Z,1.15
2023-04-04T18:02:36.921Z,1.03
2023-04-04T18:05:04.592Z,1.12
2023-04-04T18:07:31.815Z,1.18
2023-04-04T18:09:59.150Z,1.20
2023-04-04T18:12:30.137Z,1.18
2023-04-04T18:14:57.728Z,1.25
2023-04-04T18:17:25.816Z,1.18
2023-04-04T18:19:54.846Z,1.30
2023-04-04T18:22:26.757Z,1.39
2023-04-04T18:24:54.185Z,1.49
2023-04-04T18:27:21.454Z,1.40
2023-04-04T18:29:48.851Z,1.37
2023-04-04T18:32:17.870Z,1.46
2023-04-04T18:34:46.383Z,1.50
2023-04-04T18:37:13.960Z,1.55
2023-04-04T18:39:41.164Z,1.48
2023-04-04T18:42:10.268Z,1.51
2023-04-04T18:44:37.833Z,1.45
2023-04-04T18:47:07.088Z,1.47
2023-04-04T18:49:35.571Z,1.49
2023-04-04T18:52:02.918Z,1.36
2023-04-04T18:54:30.498Z,1.33
2023-04-04T18:56:57.774Z,1.29
2023-04-04T18:59:25.813Z,1.35
2023-04-04T19:01:54.148Z,1.51
2023-04-04T19:04:22.756Z,1.58
2023-04-04T19:06:52.232Z,1.55
2023-04-04T19:09:22.946Z,1.58
2023-04-04T19:11:53.988Z,1.33
2023-04-04T19:14:21.884Z,1.24
2023-04-04T19:16:49.449Z,1.12
2023-04-04T19:19:17.424Z,1.10
2023-04-04T19:21:45.491Z,1.10
2023-04-04T19:24:13.088Z,0.94
2023-04-04T19:26:40.598Z,0.73
2023-04-04T19:29:08.696Z,0.63
2023-04-04T19:31:36.311Z,0.71
2023-04-04T19:34:07.959Z,0.81
2023-04-04T19:36:37.606Z,0.52
2023-04-04T19:39:06.508Z,0.35
2023-04-04T19:41:34.875Z,0.32
2023-04-04T19:44:03.824Z,0.28
2023-04-04T19:46:33.603Z,0.32
2023-04-04T19:49:09.234Z,0.40
2023-04-04T19:51:39.272Z,0.34
2023-04-04T19:54:11.859Z,0.34
2023-04-04T19:56:39.122Z,0.23
2023-04-04T19:59:10.565Z,0.08
2023-04-04T20:01:44.579Z,-0.02
2023-04-04T20:04:15.132Z,-0.09
2023-04-04T20:06:43.037Z,-0.16
2023-04-04T20:09:40.055Z,-0.08
2023-04-04T20:12:10.310Z,-0.27
2023-04-04T20:14:38.777Z,-0.27
2023-04-04T20:17:06.342Z,-0.19
2023-04-04T20:19:36.063Z,-0.22
2023-04-04T20:22:05.396Z,-0.27
2023-04-04T20:24:32.747Z,-0.40
2023-04-04T20:27:00.253Z,-0.25
2023-04-04T20:29:32.982Z,-0.43
2023-04-04T20:32:03.272Z,-0.37
2023-04-04T20:34:50.611Z,-0.46
2023-04-04T20:37:26.264Z,-0.59
2023-04-04T20:40:13.269Z,-0.65
2023-04-04T20:42:41.457Z,-0.68
2023-04-04T20:45:27.932Z,-0.52
2023-04-04T20:48:00.667Z,-0.69
2023-04-04T20:50:27.953Z,-0.63
2023-04-04T20:53:00.728Z,-0.88
2023-04-04T20:55:31.129Z,-0.77
2023-04-04T20:58:20.482Z,-0.86
2023-04-04T21:00:47.786Z,-0.88
2023-04-04T21:03:28.491Z,-1.00
2023-04-04T21:06:16.202Z,-1.12
2023-04-04T21:08:49.826Z,-1.17
2023-04-04T21:11:32.400Z,-1.22
2023-04-04T21:13:59.654Z,-1.22
2023-04-04T21:16:28.934Z,-1.25
2023-04-04T21:19:01.737Z,-1.22
2023-04-04T21:21:29.851Z,-1.32
2023-04-04T21:24:00.043Z,-1.33
2023-04-04T21:26:38.470Z,-1.28
2023-04-04T21:29:24.500Z,-1.22
2023-04-04T21:31:54.519Z,-1.29
2023-04-04T21:34:26.766Z,-1.41
2023-04-04T21:37:01.410Z,-1.32
2023-04-04T21:39:30.490Z,-1.46
2023-04-04T21:42:05.944Z,-1.50
2023-04-04T21:44:35.453Z,-1.46
2023-04-04T21:47:02.700Z,-1.45
2023-04-04T21:49:30.006Z,-1.56
2023-04-04T21:51:57.196Z,-1.39
2023-04-04T21:54:24.388Z,-1.36
2023-04-04T21:56:51.645Z,-1.40
2023-04-04T21:59:18.881Z,-1.46
2023-04-04T22:01:46.254Z,-1.40
2023-04-04T22:04:13.607Z,-1.32
2023-04-04T22:06:40.810Z,-1.36
2023-04-04T22:09:08.062Z,-1.42
2023-04-04T22:11:41.591Z,-1.45
2023-04-04T22:14:08.820Z,-1.51
2023-04-04T22:16:39.658Z,-1.47
2023-04-04T22:19:11.033Z,-1.55
2023-04-04T22:21:39.128Z,-1.50
2023-04-04T22:24:07.130Z,-1.50
2023-04-04T22:26:34.578Z,-1.43
2023-04-04T22:29:04.574Z,-1.55
2023-04-04T22:31:34.536Z,-1.50
2023-04-04T22:34:03.493Z,-1.63
2023-04-04T22:36:31.244Z,-1.69
2023-04-04T22:38:58.737Z,-1.68
2023-04-04T22:41:28.628Z,-1.56
2023-04-04T22:43:57.367Z,-1.56
2023-04-04T22:46:26.041Z,-1.62
2023-04-04T22:49:06.141Z,-1.55
2023-04-04T22:51:44.190Z,-1.52
2023-04-04T22:54:15.124Z,-1.62
2023-04-04T22:56:42.809Z,-1.74
2023-04-04T22:59:10.929Z,-1.77
2023-04-04T23:01:38.349Z,-1.92
2023-04-04T23:04:05.818Z,-1.88
2023-04-04T23:06:33.216Z,-1.99
2023-04-04T23:09:01.355Z,-2.02
2023-04-04T23:11:29.284Z,-1.93
2023-04-04T23:13:57.204Z,-1.95
2023-04-04T23:16:26.431Z,-1.93
2023-04-04T23:18:53.978Z,-2.02
2023-04-04T23:21:22.216Z,-1.98
2023-04-04T23:23:49.698Z,-2.06
2023-04-04T23:26:16.959Z,-2.04
2023-04-04T23:28:44.205Z,-2.04
2023-04-04T23:31:11.515Z,-2.06
2023-04-04T23:33:38.639Z,-2.07
2023-04-04T23:36:06.409Z,-2.07
2023-04-04T23:38:33.732Z,-2.20
2023-04-04T23:41:00.926Z,-2.22
2023-04-04T23:43:28.491Z,-2.19
2023-04-04T23:45:55.739Z,-2.18
2023-04-04T23:48:23.045Z,-2.23
2023-04-04T23:50:54.459Z,-2.19
2023-04-04T23:53:21.998Z,-2.12
2023-04-04T23:55:49.197Z,-2.04
2023-04-04T23:58:17.016Z,-2.06
